sensor_id;sensor_type;location;lat;lon;timestamp;P1;durP1;ratioP1;P2;durP2;ratioP2
70532;SDS011;58088;51.186;17.130;2022-08-25T00:01:44;18.40;;;13.50;;
70532;SDS011;58088;51.186;17.130;2022-08-25T00:04:15;21.20;;;13.00;;
70532;SDS011;58088;51.186;17.130;2022-08-25T00:06:44;20.00;;;13.60;;
70532;SDS011;58088;51.186;17.130;2022-08-25T00:09:13;21.20;;;13.10;;
70532;SDS011;58088;51.186;17.130;2022-08-25T00:11:43;19.40;;;12.80;;
70532;SDS011;58088;51.186;17.130;2022-08-25T00:14:14;21.30;;;13.50;;
70532;SDS011;58088;51.186;17.130;2022-08-25T00:16:44;18.10;;;12.60;;
70532;SDS011;58088;51.186;17.130;2022-08-25T00:19:15;20.80;;;13.30;;
70532;SDS011;58088;51.186;17.130;2022-08-25T00:21:48;19.90;;;13.30;;
70532;SDS011;58088;51.186;17.130;2022-08-25T00:24:17;20.80;;;13.20;;
70532;SDS011;58088;51.186;17.130;2022-08-25T00:26:47;17.50;;;12.90;;
70532;SDS011;58088;51.186;17.130;2022-08-25T00:29:16;20.10;;;13.40;;
70532;SDS011;58088;51.186;17.130;2022-08-25T00:31:44;19.10;;;13.40;;
70532;SDS011;58088;51.186;17.130;2022-08-25T00:34:14;18.50;;;13.80;;
70532;SDS011;58088;51.186;17.130;2022-08-25T00:36:43;22.40;;;13.60;;
70532;SDS011;58088;51.186;17.130;2022-08-25T00:39:10;19.70;;;13.40;;
70532;SDS011;58088;51.186;17.130;2022-08-25T00:41:39;18.70;;;12.70;;
70532;SDS011;58088;51.186;17.130;2022-08-25T00:44:10;20.50;;;13.60;;
70532;SDS011;58088;51.186;17.130;2022-08-25T00:46:42;21.50;;;14.10;;
70532;SDS011;58088;51.186;17.130;2022-08-25T00:49:20;20.70;;;13.30;;
70532;SDS011;58088;51.186;17.130;2022-08-25T00:55:03;19.10;;;12.80;;
70532;SDS011;58088;51.186;17.130;2022-08-25T00:57:42;17.60;;;12.80;;
70532;SDS011;58088;51.186;17.130;2022-08-25T01:00:22;18.40;;;12.20;;
70532;SDS011;58088;51.186;17.130;2022-08-25T01:03:00;14.90;;;11.10;;
70532;SDS011;58088;51.186;17.130;2022-08-25T01:05:27;20.80;;;13.40;;
70532;SDS011;58088;51.186;17.130;2022-08-25T01:07:56;19.20;;;12.90;;
70532;SDS011;58088;51.186;17.130;2022-08-25T01:10:25;21.00;;;13.30;;
70532;SDS011;58088;51.186;17.130;2022-08-25T01:12:55;19.50;;;12.60;;
70532;SDS011;58088;51.186;17.130;2022-08-25T01:15:27;19.80;;;13.10;;
70532;SDS011;58088;51.186;17.130;2022-08-25T01:17:55;19.90;;;13.00;;
70532;SDS011;58088;51.186;17.130;2022-08-25T01:20:25;23.30;;;12.40;;
70532;SDS011;58088;51.186;17.130;2022-08-25T01:22:55;21.80;;;12.90;;
70532;SDS011;58088;51.186;17.130;2022-08-25T01:28:26;22.80;;;12.70;;
70532;SDS011;58088;51.186;17.130;2022-08-25T01:30:52;19.90;;;13.20;;
70532;SDS011;58088;51.186;17.130;2022-08-25T01:33:22;17.50;;;12.80;;
70532;SDS011;58088;51.186;17.130;2022-08-25T01:35:49;21.10;;;13.30;;
70532;SDS011;58088;51.186;17.130;2022-08-25T01:38:15;20.50;;;12.60;;
70532;SDS011;58088;51.186;17.130;2022-08-25T01:40:42;18.80;;;12.30;;
70532;SDS011;58088;51.186;17.130;2022-08-25T01:45:36;16.20;;;12.50;;
70532;SDS011;58088;51.186;17.130;2022-08-25T01:48:06;17.50;;;13.00;;
70532;SDS011;58088;51.186;17.130;2022-08-25T01:50:35;21.10;;;12.70;;
70532;SDS011;58088;51.186;17.130;2022-08-25T01:55:51;16.50;;;11.40;;
70532;SDS011;58088;51.186;17.130;2022-08-25T01:58:23;14.40;;;10.90;;
70532;SDS011;58088;51.186;17.130;2022-08-25T02:00:53;16.40;;;12.30;;
70532;SDS011;58088;51.186;17.130;2022-08-25T02:03:22;17.40;;;12.60;;
70532;SDS011;58088;51.186;17.130;2022-08-25T02:05:51;18.60;;;13.80;;
70532;SDS011;58088;51.186;17.130;2022-08-25T02:08:19;18.60;;;13.50;;
70532;SDS011;58088;51.186;17.130;2022-08-25T02:10:48;17.50;;;12.60;;
70532;SDS011;58088;51.186;17.130;2022-08-25T02:13:16;18.70;;;13.10;;
70532;SDS011;58088;51.186;17.130;2022-08-25T02:15:46;17.00;;;12.80;;
70532;SDS011;58088;51.186;17.130;2022-08-25T02:18:15;19.70;;;12.90;;
70532;SDS011;58088;51.186;17.130;2022-08-25T02:20:42;19.40;;;12.80;;
70532;SDS011;58088;51.186;17.130;2022-08-25T02:23:09;18.30;;;12.40;;
70532;SDS011;58088;51.186;17.130;2022-08-25T02:25:37;16.10;;;12.70;;
70532;SDS011;58088;51.186;17.130;2022-08-25T02:28:05;17.70;;;13.00;;
70532;SDS011;58088;51.186;17.130;2022-08-25T02:30:34;18.60;;;12.80;;
70532;SDS011;58088;51.186;17.130;2022-08-25T02:33:04;15.60;;;12.40;;
70532;SDS011;58088;51.186;17.130;2022-08-25T02:35:31;17.90;;;11.90;;
70532;SDS011;58088;51.186;17.130;2022-08-25T02:37:58;15.80;;;11.50;;
70532;SDS011;58088;51.186;17.130;2022-08-25T02:40:24;14.70;;;11.10;;
70532;SDS011;58088;51.186;17.130;2022-08-25T02:42:51;14.20;;;11.40;;
70532;SDS011;58088;51.186;17.130;2022-08-25T02:45:18;14.70;;;11.50;;
70532;SDS011;58088;51.186;17.130;2022-08-25T02:47:45;13.80;;;11.10;;
70532;SDS011;58088;51.186;17.130;2022-08-25T02:50:12;14.50;;;11.40;;
70532;SDS011;58088;51.186;17.130;2022-08-25T02:52:39;14.00;;;11.50;;
70532;SDS011;58088;51.186;17.130;2022-08-25T02:55:10;15.20;;;11.30;;
70532;SDS011;58088;51.186;17.130;2022-08-25T02:57:40;14.30;;;11.90;;
70532;SDS011;58088;51.186;17.130;2022-08-25T03:00:09;14.00;;;11.30;;
70532;SDS011;58088;51.186;17.130;2022-08-25T03:02:37;14.50;;;10.70;;
70532;SDS011;58088;51.186;17.130;2022-08-25T03:05:06;11.90;;;10.40;;
70532;SDS011;58088;51.186;17.130;2022-08-25T03:07:35;12.10;;;10.10;;
70532;SDS011;58088;51.186;17.130;2022-08-25T03:10:12;14.20;;;11.20;;
70532;SDS011;58088;51.186;17.130;2022-08-25T03:12:41;14.40;;;11.30;;
70532;SDS011;58088;51.186;17.130;2022-08-25T03:15:09;13.60;;;11.20;;
70532;SDS011;58088;51.186;17.130;2022-08-25T03:17:37;13.60;;;11.10;;
70532;SDS011;58088;51.186;17.130;2022-08-25T03:20:06;12.50;;;10.60;;
70532;SDS011;58088;51.186;17.130;2022-08-25T03:22:34;11.90;;;9.50;;
70532;SDS011;58088;51.186;17.130;2022-08-25T03:25:02;13.20;;;10.60;;
70532;SDS011;58088;51.186;17.130;2022-08-25T03:27:48;13.10;;;10.40;;
70532;SDS011;58088;51.186;17.130;2022-08-25T03:30:16;14.10;;;11.40;;
70532;SDS011;58088;51.186;17.130;2022-08-25T03:32:43;14.20;;;10.80;;
70532;SDS011;58088;51.186;17.130;2022-08-25T03:35:10;13.70;;;10.30;;
70532;SDS011;58088;51.186;17.130;2022-08-25T03:37:36;12.30;;;10.40;;
70532;SDS011;58088;51.186;17.130;2022-08-25T03:40:08;12.10;;;9.70;;
70532;SDS011;58088;51.186;17.130;2022-08-25T03:42:41;13.60;;;10.50;;
70532;SDS011;58088;51.186;17.130;2022-08-25T03:45:11;17.00;;;11.70;;
70532;SDS011;58088;51.186;17.130;2022-08-25T03:47:41;13.20;;;11.10;;
70532;SDS011;58088;51.186;17.130;2022-08-25T03:50:10;14.90;;;10.60;;
70532;SDS011;58088;51.186;17.130;2022-08-25T03:52:37;13.10;;;10.60;;
70532;SDS011;58088;51.186;17.130;2022-08-25T03:55:07;15.80;;;11.70;;
70532;SDS011;58088;51.186;17.130;2022-08-25T03:57:35;14.90;;;10.90;;
70532;SDS011;58088;51.186;17.130;2022-08-25T04:00:06;11.40;;;9.70;;
70532;SDS011;58088;51.186;17.130;2022-08-25T04:02:38;11.70;;;9.80;;
70532;SDS011;58088;51.186;17.130;2022-08-25T04:05:05;14.30;;;11.40;;
70532;SDS011;58088;51.186;17.130;2022-08-25T04:07:32;15.10;;;10.50;;
70532;SDS011;58088;51.186;17.130;2022-08-25T04:09:58;14.10;;;10.50;;
70532;SDS011;58088;51.186;17.130;2022-08-25T04:12:24;15.00;;;10.90;;
70532;SDS011;58088;51.186;17.130;2022-08-25T04:14:50;13.50;;;10.80;;
70532;SDS011;58088;51.186;17.130;2022-08-25T04:17:17;14.40;;;10.50;;
70532;SDS011;58088;51.186;17.130;2022-08-25T04:19:44;16.20;;;11.60;;
70532;SDS011;58088;51.186;17.130;2022-08-25T04:22:10;15.00;;;11.90;;
70532;SDS011;58088;51.186;17.130;2022-08-25T04:24:36;16.90;;;12.30;;
70532;SDS011;58088;51.186;17.130;2022-08-25T04:27:03;17.10;;;12.50;;
70532;SDS011;58088;51.186;17.130;2022-08-25T04:29:29;17.90;;;13.20;;
70532;SDS011;58088;51.186;17.130;2022-08-25T04:31:55;19.60;;;14.00;;
70532;SDS011;58088;51.186;17.130;2022-08-25T04:34:24;25.10;;;13.30;;
70532;SDS011;58088;51.186;17.130;2022-08-25T04:36:52;20.60;;;13.40;;
70532;SDS011;58088;51.186;17.130;2022-08-25T04:39:20;16.90;;;13.60;;
70532;SDS011;58088;51.186;17.130;2022-08-25T04:41:48;17.70;;;12.90;;
70532;SDS011;58088;51.186;17.130;2022-08-25T04:44:16;25.20;;;14.20;;
70532;SDS011;58088;51.186;17.130;2022-08-25T04:46:43;24.40;;;14.50;;
70532;SDS011;58088;51.186;17.130;2022-08-25T04:49:09;19.60;;;13.80;;
70532;SDS011;58088;51.186;17.130;2022-08-25T04:51:37;22.90;;;14.30;;
70532;SDS011;58088;51.186;17.130;2022-08-25T04:54:11;22.70;;;14.50;;
70532;SDS011;58088;51.186;17.130;2022-08-25T04:56:42;24.10;;;15.30;;
70532;SDS011;58088;51.186;17.130;2022-08-25T04:59:12;24.70;;;14.70;;
70532;SDS011;58088;51.186;17.130;2022-08-25T05:01:40;26.90;;;15.60;;
70532;SDS011;58088;51.186;17.130;2022-08-25T05:04:10;30.30;;;14.40;;
70532;SDS011;58088;51.186;17.130;2022-08-25T05:06:39;22.70;;;14.80;;
70532;SDS011;58088;51.186;17.130;2022-08-25T05:09:06;21.90;;;14.50;;
70532;SDS011;58088;51.186;17.130;2022-08-25T05:11:33;19.00;;;13.80;;
70532;SDS011;58088;51.186;17.130;2022-08-25T05:14:00;18.80;;;13.10;;
70532;SDS011;58088;51.186;17.130;2022-08-25T05:16:28;17.90;;;12.80;;
70532;SDS011;58088;51.186;17.130;2022-08-25T05:18:56;18.60;;;13.90;;
70532;SDS011;58088;51.186;17.130;2022-08-25T05:21:26;15.00;;;12.30;;
70532;SDS011;58088;51.186;17.130;2022-08-25T05:23:55;17.40;;;12.40;;
70532;SDS011;58088;51.186;17.130;2022-08-25T05:26:23;14.90;;;12.40;;
70532;SDS011;58088;51.186;17.130;2022-08-25T05:28:53;14.90;;;12.30;;
70532;SDS011;58088;51.186;17.130;2022-08-25T05:31:22;14.70;;;12.00;;
70532;SDS011;58088;51.186;17.130;2022-08-25T05:33:49;15.40;;;12.40;;
70532;SDS011;58088;51.186;17.130;2022-08-25T05:36:18;14.80;;;12.00;;
70532;SDS011;58088;51.186;17.130;2022-08-25T05:38:45;13.30;;;10.00;;
70532;SDS011;58088;51.186;17.130;2022-08-25T05:41:15;12.90;;;10.40;;
70532;SDS011;58088;51.186;17.130;2022-08-25T05:43:44;13.90;;;11.40;;
70532;SDS011;58088;51.186;17.130;2022-08-25T05:46:14;13.00;;;10.40;;
70532;SDS011;58088;51.186;17.130;2022-08-25T05:48:42;14.10;;;11.30;;
70532;SDS011;58088;51.186;17.130;2022-08-25T05:51:09;14.50;;;11.10;;
70532;SDS011;58088;51.186;17.130;2022-08-25T05:53:40;16.50;;;12.30;;
70532;SDS011;58088;51.186;17.130;2022-08-25T05:56:12;17.70;;;12.60;;
70532;SDS011;58088;51.186;17.130;2022-08-25T05:58:40;17.30;;;13.00;;
70532;SDS011;58088;51.186;17.130;2022-08-25T06:01:09;20.60;;;13.70;;
70532;SDS011;58088;51.186;17.130;2022-08-25T06:04:01;21.40;;;12.70;;
70532;SDS011;58088;51.186;17.130;2022-08-25T06:06:27;19.60;;;13.70;;
70532;SDS011;58088;51.186;17.130;2022-08-25T06:08:54;19.80;;;14.30;;
70532;SDS011;58088;51.186;17.130;2022-08-25T06:11:20;18.90;;;12.50;;
70532;SDS011;58088;51.186;17.130;2022-08-25T06:13:46;21.60;;;14.20;;
70532;SDS011;58088;51.186;17.130;2022-08-25T06:16:12;19.70;;;14.90;;
70532;SDS011;58088;51.186;17.130;2022-08-25T06:18:38;21.80;;;14.20;;
70532;SDS011;58088;51.186;17.130;2022-08-25T06:21:13;19.50;;;13.80;;
70532;SDS011;58088;51.186;17.130;2022-08-25T06:23:41;21.80;;;14.70;;
70532;SDS011;58088;51.186;17.130;2022-08-25T06:26:10;19.50;;;12.80;;
70532;SDS011;58088;51.186;17.130;2022-08-25T06:28:39;23.00;;;14.60;;
70532;SDS011;58088;51.186;17.130;2022-08-25T06:31:08;17.40;;;12.60;;
70532;SDS011;58088;51.186;17.130;2022-08-25T06:33:40;18.90;;;13.70;;
70532;SDS011;58088;51.186;17.130;2022-08-25T06:36:11;17.80;;;12.80;;
70532;SDS011;58088;51.186;17.130;2022-08-25T06:38:44;21.60;;;14.60;;
70532;SDS011;58088;51.186;17.130;2022-08-25T06:41:16;21.00;;;15.20;;
70532;SDS011;58088;51.186;17.130;2022-08-25T06:43:48;25.80;;;17.50;;
70532;SDS011;58088;51.186;17.130;2022-08-25T06:46:22;24.70;;;17.50;;
70532;SDS011;58088;51.186;17.130;2022-08-25T06:48:55;24.70;;;16.70;;
70532;SDS011;58088;51.186;17.130;2022-08-25T06:51:27;22.70;;;15.80;;
70532;SDS011;58088;51.186;17.130;2022-08-25T06:53:55;25.30;;;15.90;;
70532;SDS011;58088;51.186;17.130;2022-08-25T06:56:21;25.50;;;17.10;;
70532;SDS011;58088;51.186;17.130;2022-08-25T06:58:48;31.00;;;18.50;;
70532;SDS011;58088;51.186;17.130;2022-08-25T07:01:18;23.00;;;16.90;;
70532;SDS011;58088;51.186;17.130;2022-08-25T07:03:48;25.80;;;16.30;;
70532;SDS011;58088;51.186;17.130;2022-08-25T07:06:16;26.40;;;16.70;;
70532;SDS011;58088;51.186;17.130;2022-08-25T07:08:43;23.40;;;16.10;;
70532;SDS011;58088;51.186;17.130;2022-08-25T07:11:11;17.80;;;13.90;;
70532;SDS011;58088;51.186;17.130;2022-08-25T07:13:39;21.90;;;16.10;;
70532;SDS011;58088;51.186;17.130;2022-08-25T07:16:07;22.20;;;16.70;;
70532;SDS011;58088;51.186;17.130;2022-08-25T07:18:36;20.10;;;15.10;;
70532;SDS011;58088;51.186;17.130;2022-08-25T07:21:02;19.60;;;13.80;;
70532;SDS011;58088;51.186;17.130;2022-08-25T07:23:28;19.50;;;13.40;;
70532;SDS011;58088;51.186;17.130;2022-08-25T07:25:55;20.90;;;14.20;;
70532;SDS011;58088;51.186;17.130;2022-08-25T07:28:22;17.90;;;12.70;;
70532;SDS011;58088;51.186;17.130;2022-08-25T07:30:49;21.90;;;14.60;;
70532;SDS011;58088;51.186;17.130;2022-08-25T07:33:16;19.30;;;12.90;;
70532;SDS011;58088;51.186;17.130;2022-08-25T07:35:42;21.60;;;15.00;;
70532;SDS011;58088;51.186;17.130;2022-08-25T07:38:09;22.60;;;15.90;;
70532;SDS011;58088;51.186;17.130;2022-08-25T07:40:37;19.70;;;13.20;;
70532;SDS011;58088;51.186;17.130;2022-08-25T07:43:06;18.70;;;12.40;;
70532;SDS011;58088;51.186;17.130;2022-08-25T07:45:37;17.20;;;11.50;;
70532;SDS011;58088;51.186;17.130;2022-08-25T07:48:06;17.20;;;12.30;;
70532;SDS011;58088;51.186;17.130;2022-08-25T07:50:35;21.00;;;12.60;;
70532;SDS011;58088;51.186;17.130;2022-08-25T07:53:07;17.50;;;11.50;;
70532;SDS011;58088;51.186;17.130;2022-08-25T07:55:35;16.60;;;11.90;;
70532;SDS011;58088;51.186;17.130;2022-08-25T07:58:04;18.30;;;12.10;;
70532;SDS011;58088;51.186;17.130;2022-08-25T08:00:33;20.60;;;11.90;;
70532;SDS011;58088;51.186;17.130;2022-08-25T08:03:06;18.40;;;10.90;;
70532;SDS011;58088;51.186;17.130;2022-08-25T08:05:34;15.60;;;9.40;;
70532;SDS011;58088;51.186;17.130;2022-08-25T08:08:02;14.40;;;9.20;;
70532;SDS011;58088;51.186;17.130;2022-08-25T08:10:28;14.20;;;8.50;;
70532;SDS011;58088;51.186;17.130;2022-08-25T08:12:54;14.00;;;7.20;;
70532;SDS011;58088;51.186;17.130;2022-08-25T08:15:21;11.70;;;6.60;;
70532;SDS011;58088;51.186;17.130;2022-08-25T08:17:47;15.20;;;8.30;;
70532;SDS011;58088;51.186;17.130;2022-08-25T08:20:14;16.70;;;8.50;;
70532;SDS011;58088;51.186;17.130;2022-08-25T08:22:42;14.90;;;7.80;;
70532;SDS011;58088;51.186;17.130;2022-08-25T08:25:11;16.70;;;8.80;;
70532;SDS011;58088;51.186;17.130;2022-08-25T08:27:37;11.80;;;7.80;;
70532;SDS011;58088;51.186;17.130;2022-08-25T08:30:05;20.10;;;9.00;;
70532;SDS011;58088;51.186;17.130;2022-08-25T08:32:32;14.80;;;7.80;;
70532;SDS011;58088;51.186;17.130;2022-08-25T08:34:58;15.70;;;7.00;;
70532;SDS011;58088;51.186;17.130;2022-08-25T08:37:24;14.80;;;7.20;;
70532;SDS011;58088;51.186;17.130;2022-08-25T08:39:51;13.00;;;7.40;;
70532;SDS011;58088;51.186;17.130;2022-08-25T08:45:36;11.80;;;6.10;;
70532;SDS011;58088;51.186;17.130;2022-08-25T08:48:18;14.70;;;6.50;;
70532;SDS011;58088;51.186;17.130;2022-08-25T08:56:35;11.40;;;6.50;;
70532;SDS011;58088;51.186;17.130;2022-08-25T08:59:12;13.70;;;5.80;;
70532;SDS011;58088;51.186;17.130;2022-08-25T09:01:50;10.40;;;5.20;;
70532;SDS011;58088;51.186;17.130;2022-08-25T09:04:32;14.30;;;5.70;;
70532;SDS011;58088;51.186;17.130;2022-08-25T09:07:09;14.10;;;6.20;;
70532;SDS011;58088;51.186;17.130;2022-08-25T09:09:40;13.50;;;6.50;;
70532;SDS011;58088;51.186;17.130;2022-08-25T09:12:12;12.50;;;5.90;;
70532;SDS011;58088;51.186;17.130;2022-08-25T09:18:20;11.70;;;5.20;;
70532;SDS011;58088;51.186;17.130;2022-08-25T09:21:06;16.10;;;5.40;;
70532;SDS011;58088;51.186;17.130;2022-08-25T09:24:20;10.70;;;4.40;;
70532;SDS011;58088;51.186;17.130;2022-08-25T09:30:08;15.60;;;4.50;;
70532;SDS011;58088;51.186;17.130;2022-08-25T09:32:45;12.90;;;4.30;;
70532;SDS011;58088;51.186;17.130;2022-08-25T09:35:20;14.80;;;4.60;;
70532;SDS011;58088;51.186;17.130;2022-08-25T09:38:02;11.70;;;4.70;;
70532;SDS011;58088;51.186;17.130;2022-08-25T09:40:34;17.00;;;4.50;;
70532;SDS011;58088;51.186;17.130;2022-08-25T09:43:17;10.90;;;4.70;;
70532;SDS011;58088;51.186;17.130;2022-08-25T09:48:45;12.40;;;4.10;;
70532;SDS011;58088;51.186;17.130;2022-08-25T09:54:03;11.10;;;4.60;;
70532;SDS011;58088;51.186;17.130;2022-08-25T10:01:56;13.50;;;5.30;;
70532;SDS011;58088;51.186;17.130;2022-08-25T10:04:30;17.20;;;5.20;;
70532;SDS011;58088;51.186;17.130;2022-08-25T10:09:55;12.90;;;4.60;;
70532;SDS011;58088;51.186;17.130;2022-08-25T10:12:36;12.20;;;5.10;;
70532;SDS011;58088;51.186;17.130;2022-08-25T10:17:42;17.00;;;5.30;;
70532;SDS011;58088;51.186;17.130;2022-08-25T10:22:35;12.20;;;4.80;;
70532;SDS011;58088;51.186;17.130;2022-08-25T10:25:04;17.40;;;5.20;;
70532;SDS011;58088;51.186;17.130;2022-08-25T10:30:18;15.60;;;5.00;;
70532;SDS011;58088;51.186;17.130;2022-08-25T10:33:25;17.50;;;5.40;;
70532;SDS011;58088;51.186;17.130;2022-08-25T10:39:38;13.60;;;5.30;;
70532;SDS011;58088;51.186;17.130;2022-08-25T10:42:29;14.00;;;4.90;;
70532;SDS011;58088;51.186;17.130;2022-08-25T10:45:26;15.20;;;5.20;;
70532;SDS011;58088;51.186;17.130;2022-08-25T10:48:30;14.10;;;5.20;;
70532;SDS011;58088;51.186;17.130;2022-08-25T10:51:50;15.10;;;5.10;;
70532;SDS011;58088;51.186;17.130;2022-08-25T10:54:52;20.50;;;5.50;;
70532;SDS011;58088;51.186;17.130;2022-08-25T11:00:31;14.40;;;5.30;;
70532;SDS011;58088;51.186;17.130;2022-08-25T11:03:15;12.20;;;5.20;;
70532;SDS011;58088;51.186;17.130;2022-08-25T11:05:55;14.30;;;5.50;;
70532;SDS011;58088;51.186;17.130;2022-08-25T11:11:27;20.60;;;5.80;;
70532;SDS011;58088;51.186;17.130;2022-08-25T11:16:37;14.00;;;5.60;;
70532;SDS011;58088;51.186;17.130;2022-08-25T11:22:10;13.60;;;4.90;;
70532;SDS011;58088;51.186;17.130;2022-08-25T11:25:00;18.00;;;5.50;;
70532;SDS011;58088;51.186;17.130;2022-08-25T11:30:41;17.10;;;5.50;;
70532;SDS011;58088;51.186;17.130;2022-08-25T11:33:13;14.00;;;5.00;;
70532;SDS011;58088;51.186;17.130;2022-08-25T11:35:52;14.30;;;5.10;;
70532;SDS011;58088;51.186;17.130;2022-08-25T11:47:32;13.00;;;5.50;;
70532;SDS011;58088;51.186;17.130;2022-08-25T11:50:34;20.80;;;5.20;;
70532;SDS011;58088;51.186;17.130;2022-08-25T11:53:23;24.10;;;5.60;;
70532;SDS011;58088;51.186;17.130;2022-08-25T11:55:58;17.40;;;5.20;;
70532;SDS011;58088;51.186;17.130;2022-08-25T12:12:55;22.80;;;5.00;;
70532;SDS011;58088;51.186;17.130;2022-08-25T12:18:10;21.70;;;4.30;;
70532;SDS011;58088;51.186;17.130;2022-08-25T12:23:43;22.20;;;4.50;;
70532;SDS011;58088;51.186;17.130;2022-08-25T12:26:38;23.50;;;5.00;;
70532;SDS011;58088;51.186;17.130;2022-08-25T12:29:26;21.40;;;4.60;;
70532;SDS011;58088;51.186;17.130;2022-08-25T12:35:37;20.90;;;4.90;;
70532;SDS011;58088;51.186;17.130;2022-08-25T12:38:16;18.10;;;4.80;;
70532;SDS011;58088;51.186;17.130;2022-08-25T12:41:06;18.60;;;4.00;;
70532;SDS011;58088;51.186;17.130;2022-08-25T12:43:41;19.30;;;4.60;;
70532;SDS011;58088;51.186;17.130;2022-08-25T12:52:25;18.20;;;4.00;;
70532;SDS011;58088;51.186;17.130;2022-08-25T12:54:58;19.70;;;4.50;;
70532;SDS011;58088;51.186;17.130;2022-08-25T13:00:31;20.70;;;4.70;;
70532;SDS011;58088;51.186;17.130;2022-08-25T13:06:33;20.20;;;4.60;;
70532;SDS011;58088;51.186;17.130;2022-08-25T13:09:45;23.00;;;5.10;;
70532;SDS011;58088;51.186;17.130;2022-08-25T13:12:21;22.20;;;4.20;;
70532;SDS011;58088;51.186;17.130;2022-08-25T13:14:54;27.40;;;4.70;;
70532;SDS011;58088;51.186;17.130;2022-08-25T13:17:27;28.50;;;5.20;;
70532;SDS011;58088;51.186;17.130;2022-08-25T13:20:21;24.90;;;5.40;;
70532;SDS011;58088;51.186;17.130;2022-08-25T13:22:52;21.40;;;5.40;;
70532;SDS011;58088;51.186;17.130;2022-08-25T13:25:27;20.10;;;4.60;;
70532;SDS011;58088;51.186;17.130;2022-08-25T13:27:57;22.20;;;5.00;;
70532;SDS011;58088;51.186;17.130;2022-08-25T13:30:33;25.10;;;5.50;;
70532;SDS011;58088;51.186;17.130;2022-08-25T13:33:21;19.80;;;4.60;;
70532;SDS011;58088;51.186;17.130;2022-08-25T13:35:51;25.30;;;5.20;;
70532;SDS011;58088;51.186;17.130;2022-08-25T13:38:39;20.90;;;4.10;;
70532;SDS011;58088;51.186;17.130;2022-08-25T13:41:08;16.70;;;4.30;;
70532;SDS011;58088;51.186;17.130;2022-08-25T13:43:36;21.40;;;4.60;;
70532;SDS011;58088;51.186;17.130;2022-08-25T13:46:04;21.20;;;5.40;;
70532;SDS011;58088;51.186;17.130;2022-08-25T13:48:39;19.50;;;5.10;;
70532;SDS011;58088;51.186;17.130;2022-08-25T13:53:59;17.50;;;4.40;;
70532;SDS011;58088;51.186;17.130;2022-08-25T13:56:39;22.50;;;5.10;;
70532;SDS011;58088;51.186;17.130;2022-08-25T13:59:20;23.10;;;4.90;;
70532;SDS011;58088;51.186;17.130;2022-08-25T14:01:51;23.40;;;5.20;;
70532;SDS011;58088;51.186;17.130;2022-08-25T14:04:28;16.80;;;4.60;;
70532;SDS011;58088;51.186;17.130;2022-08-25T14:10:34;26.10;;;5.10;;
70532;SDS011;58088;51.186;17.130;2022-08-25T14:13:30;26.50;;;4.80;;
70532;SDS011;58088;51.186;17.130;2022-08-25T14:16:07;25.70;;;4.90;;
70532;SDS011;58088;51.186;17.130;2022-08-25T14:18:46;16.30;;;4.90;;
70532;SDS011;58088;51.186;17.130;2022-08-25T14:21:18;21.20;;;4.60;;
70532;SDS011;58088;51.186;17.130;2022-08-25T14:23:48;23.40;;;5.00;;
70532;SDS011;58088;51.186;17.130;2022-08-25T14:26:16;22.90;;;5.20;;
70532;SDS011;58088;51.186;17.130;2022-08-25T14:28:42;23.00;;;4.50;;
70532;SDS011;58088;51.186;17.130;2022-08-25T14:31:13;27.50;;;5.20;;
70532;SDS011;58088;51.186;17.130;2022-08-25T14:33:53;28.70;;;5.40;;
70532;SDS011;58088;51.186;17.130;2022-08-25T14:36:23;25.20;;;5.00;;
70532;SDS011;58088;51.186;17.130;2022-08-25T14:38:51;18.00;;;4.40;;
70532;SDS011;58088;51.186;17.130;2022-08-25T14:41:19;20.50;;;4.70;;
70532;SDS011;58088;51.186;17.130;2022-08-25T14:43:46;28.90;;;5.40;;
70532;SDS011;58088;51.186;17.130;2022-08-25T14:46:27;19.30;;;4.50;;
70532;SDS011;58088;51.186;17.130;2022-08-25T14:48:59;21.60;;;4.80;;
70532;SDS011;58088;51.186;17.130;2022-08-25T14:51:29;20.50;;;5.20;;
70532;SDS011;58088;51.186;17.130;2022-08-25T14:54:02;23.50;;;5.60;;
70532;SDS011;58088;51.186;17.130;2022-08-25T14:56:32;19.70;;;5.30;;
70532;SDS011;58088;51.186;17.130;2022-08-25T14:58:59;23.40;;;5.90;;
70532;SDS011;58088;51.186;17.130;2022-08-25T15:01:26;18.50;;;5.20;;
70532;SDS011;58088;51.186;17.130;2022-08-25T15:03:57;22.20;;;5.30;;
70532;SDS011;58088;51.186;17.130;2022-08-25T15:06:33;17.90;;;4.50;;
70532;SDS011;58088;51.186;17.130;2022-08-25T15:09:01;19.90;;;5.00;;
70532;SDS011;58088;51.186;17.130;2022-08-25T15:11:33;24.70;;;5.20;;
70532;SDS011;58088;51.186;17.130;2022-08-25T15:14:01;19.30;;;5.20;;
70532;SDS011;58088;51.186;17.130;2022-08-25T15:19:07;21.10;;;4.90;;
70532;SDS011;58088;51.186;17.130;2022-08-25T15:21:36;19.60;;;5.70;;
70532;SDS011;58088;51.186;17.130;2022-08-25T15:24:04;16.80;;;5.10;;
70532;SDS011;58088;51.186;17.130;2022-08-25T15:26:39;23.10;;;6.50;;
70532;SDS011;58088;51.186;17.130;2022-08-25T15:29:09;20.10;;;5.40;;
70532;SDS011;58088;51.186;17.130;2022-08-25T15:31:36;20.50;;;5.50;;
70532;SDS011;58088;51.186;17.130;2022-08-25T15:34:06;17.10;;;5.30;;
70532;SDS011;58088;51.186;17.130;2022-08-25T15:36:34;14.80;;;4.70;;
70532;SDS011;58088;51.186;17.130;2022-08-25T15:39:02;20.20;;;5.80;;
70532;SDS011;58088;51.186;17.130;2022-08-25T15:41:29;20.10;;;5.50;;
70532;SDS011;58088;51.186;17.130;2022-08-25T15:43:56;17.20;;;5.50;;
70532;SDS011;58088;51.186;17.130;2022-08-25T15:46:26;17.20;;;5.00;;
70532;SDS011;58088;51.186;17.130;2022-08-25T15:48:56;18.60;;;5.30;;
70532;SDS011;58088;51.186;17.130;2022-08-25T15:51:25;19.80;;;5.30;;
70532;SDS011;58088;51.186;17.130;2022-08-25T15:53:54;17.10;;;5.00;;
70532;SDS011;58088;51.186;17.130;2022-08-25T15:56:21;20.70;;;5.40;;
70532;SDS011;58088;51.186;17.130;2022-08-25T15:58:49;18.20;;;4.90;;
70532;SDS011;58088;51.186;17.130;2022-08-25T16:01:23;20.70;;;5.50;;
70532;SDS011;58088;51.186;17.130;2022-08-25T16:03:52;22.00;;;5.90;;
70532;SDS011;58088;51.186;17.130;2022-08-25T16:06:19;19.60;;;5.00;;
70532;SDS011;58088;51.186;17.130;2022-08-25T16:08:46;20.90;;;5.40;;
70532;SDS011;58088;51.186;17.130;2022-08-25T16:11:22;16.70;;;5.30;;
70532;SDS011;58088;51.186;17.130;2022-08-25T16:13:51;20.30;;;5.50;;
70532;SDS011;58088;51.186;17.130;2022-08-25T16:16:20;16.60;;;5.30;;
70532;SDS011;58088;51.186;17.130;2022-08-25T16:18:48;18.00;;;4.90;;
70532;SDS011;58088;51.186;17.130;2022-08-25T16:21:20;17.50;;;5.20;;
70532;SDS011;58088;51.186;17.130;2022-08-25T16:23:52;21.40;;;5.10;;
70532;SDS011;58088;51.186;17.130;2022-08-25T16:26:20;21.90;;;5.10;;
70532;SDS011;58088;51.186;17.130;2022-08-25T16:28:46;23.00;;;4.90;;
70532;SDS011;58088;51.186;17.130;2022-08-25T16:31:14;17.00;;;4.90;;
70532;SDS011;58088;51.186;17.130;2022-08-25T16:33:41;21.80;;;5.40;;
70532;SDS011;58088;51.186;17.130;2022-08-25T16:38:42;17.60;;;5.20;;
70532;SDS011;58088;51.186;17.130;2022-08-25T16:41:12;19.10;;;5.00;;
70532;SDS011;58088;51.186;17.130;2022-08-25T16:43:44;19.50;;;5.80;;